Time;durP1;ratioP1;P1;durP2;ratioP2;P2;SDS_P1;SDS_P2;PMS_P1;PMS_P2;Temp;Humidity;BMP_temperature;BMP_pressure;BME280_temperature;BME280_humidity;BME280_pressure;Samples;Min_cycle;Max_cycle;Signal;HPM_P1;HPM_P2
2021/12/09 00:01:02;;;;;;;14.77;9.25;;;;;;;24.91;35.78;100141.28;5016688;28;20067;-55
2021/12/09 00:03:39;;;;;;;10.50;8.48;;;;;;;25.15;35.84;100175.56;5015456;28;20034;-56
2021/12/09 00:06:06;;;;;;;12.75;9.57;;;;;;;25.11;35.72;100179.41;5005437;28;20040;-56
2021/12/09 00:08:33;;;;;;;10.02;7.82;;;;;;;25.03;35.78;100158.41;5015507;28;20160;-56
2021/12/09 00:11:01;;;;;;;11.98;9.10;;;;;;;25.13;35.71;100180.16;5018372;28;20160;-56
2021/12/09 00:13:28;;;;;;;12.60;8.98;;;;;;;24.94;35.67;100156.31;5018096;28;20053;-54
2021/12/09 00:15:55;;;;;;;12.30;9.65;;;;;;;24.90;35.96;100146.72;5014840;28;23696;-56
2021/12/09 00:18:21;;;;;;;12.85;9.20;;;;;;;25.01;35.83;100171.06;5016600;28;20041;-57
2021/12/09 00:20:46;;;;;;;13.93;9.95;;;;;;;25.06;35.60;100175.19;5015685;28;20135;-56
2021/12/09 00:23:13;;;;;;;15.63;8.93;;;;;;;25.04;35.72;100184.28;5018189;28;20053;-56
2021/12/09 00:25:39;;;;;;;11.18;8.63;;;;;;;25.07;35.51;100186.78;5015773;28;20640;-57
2021/12/09 00:28:05;;;;;;;10.38;8.93;;;;;;;24.83;35.67;100143.56;5015039;28;20050;-57
2021/12/09 00:30:32;;;;;;;11.00;8.75;;;;;;;24.98;35.57;100185.56;5017341;28;20045;-56
2021/12/09 00:33:00;;;;;;;11.73;9.40;;;;;;;25.08;35.56;100201.94;5017154;28;20037;-55
2021/12/09 00:35:31;;;;;;;12.18;8.43;;;;;;;25.08;35.23;100206.44;5014362;28;20033;-56
2021/12/09 00:38:03;;;;;;;11.88;8.93;;;;;;;24.83;35.30;100171.28;5014855;28;20073;-56
2021/12/09 00:40:29;;;;;;;15.30;9.68;;;;;;;24.77;35.54;100163.63;5017381;28;20057;-56
2021/12/09 00:42:55;;;;;;;11.52;9.05;;;;;;;24.93;35.35;100184.97;5014452;28;20055;-56
2021/12/09 00:45:21;;;;;;;10.80;8.05;;;;;;;24.95;35.06;100185.72;5016817;28;20029;-57
2021/12/09 00:47:47;;;;;;;11.75;7.72;;;;;;;24.97;35.22;100207.97;5017404;28;20025;-56
2021/12/09 00:50:14;;;;;;;13.98;10.10;;;;;;;24.93;34.99;100209.13;5015812;28;20041;-56
2021/12/09 00:52:40;;;;;;;12.90;9.27;;;;;;;24.73;35.19;100177.34;5015279;28;20056;-56
2021/12/09 00:55:08;;;;;;;11.65;8.90;;;;;;;24.89;35.03;100196.00;5016149;28;22785;-55
2021/12/09 00:57:35;;;;;;;11.82;9.02;;;;;;;24.99;35.48;100226.69;5017350;28;20045;-55
2021/12/09 01:00:03;;;;;;;13.32;9.35;;;;;;;24.90;35.03;100213.84;5016457;28;20053;-56
2021/12/09 01:02:28;;;;;;;12.15;10.00;;;;;;;24.77;35.35;100203.88;5016168;28;20455;-56
2021/12/09 01:04:54;;;;;;;10.40;8.25;;;;;;;24.98;35.01;100235.69;5016306;28;20053;-56
2021/12/09 01:07:19;;;;;;;12.07;9.38;;;;;;;24.79;34.90;100214.50;5014671;28;20069;-56
2021/12/09 01:09:45;;;;;;;13.15;9.75;;;;;;;24.76;35.23;100204.81;5013962;28;20099;-58
2021/12/09 01:12:11;;;;;;;12.63;8.68;;;;;;;24.74;34.79;100204.03;5017083;28;20040;-55
2021/12/09 01:14:37;;;;;;;11.05;9.25;;;;;;;24.80;34.89;100213.56;5016192;28;20049;-56
2021/12/09 01:17:05;;;;;;;16.00;9.55;;;;;;;24.75;34.77;100208.47;5015247;28;20048;-57
2021/12/09 01:19:32;;;;;;;11.85;9.60;;;;;;;24.95;34.97;100250.16;5015088;28;20053;-57
2021/12/09 01:21:58;;;;;;;10.48;8.10;;;;;;;24.97;34.91;100258.97;5015415;28;20049;-58
2021/12/09 01:24:24;;;;;;;11.80;8.75;;;;;;;24.97;34.86;100242.03;5014897;28;20677;-57
2021/12/09 01:26:50;;;;;;;12.07;9.15;;;;;;;24.89;34.95;100225.50;5017226;28;20473;-57
2021/12/09 01:29:19;;;;;;;11.13;8.68;;;;;;;24.94;34.62;100256.50;5015535;28;20067;-56
2021/12/09 01:31:54;;;;;;;13.13;8.32;;;;;;;24.87;34.79;100238.19;5014770;28;20045;-57
2021/12/09 01:34:21;;;;;;;11.27;9.50;;;;;;;24.70;34.82;100197.16;5015720;28;20064;-56
2021/12/09 01:36:49;;;;;;;11.75;7.50;;;;;;;24.94;34.62;100242.22;5014728;28;20049;-56
2021/12/09 01:39:15;;;;;;;10.50;9.27;;;;;;;24.90;34.64;100241.53;5015423;28;20049;-57
2021/12/09 01:41:40;;;;;;;10.45;8.55;;;;;;;24.91;34.71;100237.91;5016873;28;20040;-56
2021/12/09 01:44:06;;;;;;;13.85;8.73;;;;;;;24.78;34.69;100228.88;5015230;28;21253;-56
2021/12/09 01:46:32;;;;;;;12.63;8.85;;;;;;;24.94;34.50;100255.66;5013481;28;20053;-56
2021/12/09 01:48:57;;;;;;;11.85;9.70;;;;;;;24.93;34.41;100256.59;5019883;28;20057;-56
2021/12/09 01:51:24;;;;;;;13.75;9.20;;;;;;;24.90;34.36;100254.09;5020951;28;21372;-56
2021/12/09 01:53:51;;;;;;;11.20;8.73;;;;;;;24.47;34.21;100185.19;5020003;28;20060;-56
2021/12/09 01:56:23;;;;;;;13.00;9.73;;;;;;;24.80;34.36;100254.66;5020481;28;20128;-56
2021/12/09 01:58:55;;;;;;;12.35;9.27;;;;;;;24.60;34.18;100210.28;5019527;28;20133;-56
2021/12/09 02:01:22;;;;;;;11.55;9.85;;;;;;;24.80;34.15;100235.03;5017123;28;20046;-58
2021/12/09 02:03:48;;;;;;;10.10;9.00;;;;;;;24.89;34.18;100255.03;5019124;28;20132;-56
2021/12/09 02:06:15;;;;;;;10.30;8.43;;;;;;;24.90;34.08;100246.06;5020416;28;20045;-56
2021/12/09 02:08:40;;;;;;;12.57;9.15;;;;;;;24.77;34.37;100225.34;5017620;28;20102;-56
2021/12/09 02:11:06;;;;;;;13.10;9.52;;;;;;;24.67;34.36;100204.53;5019431;28;20053;-56
2021/12/09 02:13:32;;;;;;;12.90;8.80;;;;;;;24.68;34.29;100208.94;5019991;28;20481;-56
2021/12/09 02:15:57;;;;;;;9.75;8.45;;;;;;;24.79;34.06;100228.78;5020356;28;20067;-56
2021/12/09 02:18:24;;;;;;;11.65;8.10;;;;;;;24.46;34.04;100175.34;5018477;28;20037;-55
2021/12/09 02:21:06;;;;;;;12.38;8.75;;;;;;;24.76;34.09;100230.81;5020400;28;20482;-57
2021/12/09 02:23:32;;;;;;;10.27;8.73;;;;;;;24.52;34.33;100185.75;5019708;28;20497;-55
2021/12/09 02:25:58;;;;;;;13.38;8.43;;;;;;;24.84;34.19;100241.91;5018373;28;20451;-57
2021/12/09 02:28:26;;;;;;;10.65;8.85;;;;;;;24.85;34.21;100235.59;5019521;28;20057;-56
2021/12/09 02:30:51;;;;;;;11.20;9.18;;;;;;;24.85;33.96;100240.97;5019079;28;20088;-57
2021/12/09 02:33:17;;;;;;;14.85;8.85;;;;;;;24.55;33.96;100182.88;5019931;28;20156;-56
2021/12/09 02:35:43;;;;;;;12.00;7.97;;;;;;;24.76;34.04;100228.13;5019769;28;20080;-56
2021/12/09 02:38:08;;;;;;;10.98;8.60;;;;;;;24.74;33.97;100232.72;4994294;28;20162;-56
2021/12/09 02:40:35;;;;;;;8.82;7.43;;;;;;;24.75;33.81;100243.38;4988458;28;20867;-57
2021/12/09 02:43:04;;;;;;;11.93;9.75;;;;;;;24.77;34.16;100243.25;4988217;28;20112;-57
2021/12/09 02:45:30;;;;;;;10.85;8.30;;;;;;;24.76;33.95;100244.22;4992911;28;20038;-56
2021/12/09 02:47:55;;;;;;;11.30;8.52;;;;;;;24.53;34.28;100203.56;5019372;28;20481;-56
2021/12/09 02:50:21;;;;;;;10.82;8.98;;;;;;;24.55;33.93;100211.53;5019045;28;20048;-58
2021/12/09 02:52:49;;;;;;;11.30;7.82;;;;;;;24.66;33.94;100229.66;5018184;28;20065;-57
2021/12/09 02:55:15;;;;;;;9.48;7.55;;;;;;;24.81;33.75;100267.13;5018202;28;20061;-56
2021/12/09 02:57:41;;;;;;;12.10;8.95;;;;;;;24.61;33.71;100238.00;5018081;28;20140;-56
2021/12/09 03:00:09;;;;;;;10.90;8.68;;;;;;;24.50;33.75;100222.53;5018015;28;20060;-57
2021/12/09 03:02:35;;;;;;;12.27;8.13;;;;;;;24.68;33.78;100246.50;5015812;28;20472;-56
2021/12/09 03:05:03;;;;;;;10.90;8.85;;;;;;;24.72;33.72;100250.72;5016969;28;20049;-55
2021/12/09 03:07:33;;;;;;;12.05;9.50;;;;;;;24.47;33.94;100212.00;5018959;28;20045;-56
2021/12/09 03:10:20;;;;;;;11.68;9.38;;;;;;;24.67;33.87;100247.47;5016423;28;20049;-56
2021/12/09 03:12:52;;;;;;;13.75;8.90;;;;;;;24.55;33.84;100238.34;5019198;28;20037;-56
2021/12/09 03:15:19;;;;;;;11.43;8.65;;;;;;;24.55;34.05;100241.03;5016037;28;20477;-57
2021/12/09 03:17:47;;;;;;;12.82;9.57;;;;;;;24.68;33.81;100276.91;5017809;28;20029;-57
2021/12/09 03:20:15;;;;;;;10.10;8.48;;;;;;;24.40;33.87;100234.75;5018104;28;20595;-58
2021/12/09 03:22:41;;;;;;;11.30;9.43;;;;;;;24.39;34.03;100249.97;5018793;28;20572;-57
2021/12/09 03:25:09;;;;;;;12.05;9.57;;;;;;;24.54;34.10;100283.09;5017778;28;20053;-58
2021/12/09 03:27:35;;;;;;;10.35;8.23;;;;;;;24.30;33.85;100245.16;5016054;28;20049;-58
2021/12/09 03:30:02;;;;;;;12.32;9.48;;;;;;;24.25;34.04;100241.03;5017050;28;20025;-58
2021/12/09 03:32:28;;;;;;;9.57;8.35;;;;;;;24.43;33.97;100270.28;5018771;28;20037;-58
2021/12/09 03:34:53;;;;;;;13.10;10.18;;;;;;;24.42;33.99;100273.94;5014658;28;20041;-59
2021/12/09 03:37:22;;;;;;;14.90;9.85;;;;;;;24.39;34.10;100282.16;5017615;28;20043;-58
2021/12/09 03:39:50;;;;;;;12.15;9.73;;;;;;;24.37;33.98;100281.41;5017229;28;20091;-58
2021/12/09 03:42:18;;;;;;;12.93;9.35;;;;;;;24.10;34.17;100237.44;5017103;28;20045;-59
2021/12/09 03:44:46;;;;;;;10.98;8.52;;;;;;;24.10;33.99;100246.34;5018524;28;20029;-59
2021/12/09 03:47:14;;;;;;;13.73;9.10;;;;;;;24.27;34.37;100274.84;5017488;28;20072;-59
2021/12/09 03:49:42;;;;;;;11.98;9.43;;;;;;;24.12;33.95;100249.81;5017661;28;20057;-59
2021/12/09 03:52:08;;;;;;;11.68;10.15;;;;;;;24.29;34.09;100278.31;5016612;28;20056;-59
2021/12/09 03:54:34;;;;;;;11.70;9.45;;;;;;;24.30;34.18;100271.97;5016258;28;20046;-58
2021/12/09 03:56:59;;;;;;;10.98;9.15;;;;;;;24.28;33.69;100265.84;5018075;28;20052;-59
2021/12/09 03:59:25;;;;;;;11.88;9.38;;;;;;;24.04;33.87;100230.63;5015356;28;20049;-60
2021/12/09 04:01:51;;;;;;;12.88;9.00;;;;;;;24.25;34.09;100266.03;5015319;28;20053;-60
2021/12/09 04:04:17;;;;;;;11.63;9.50;;;;;;;24.21;34.08;100268.03;5017394;28;20056;-58
2021/12/09 04:06:43;;;;;;;12.80;10.13;;;;;;;24.01;34.13;100233.50;5017896;28;20053;-56
2021/12/09 04:09:12;;;;;;;13.30;8.57;;;;;;;24.21;34.46;100254.63;5014430;28;20033;-56
2021/12/09 04:11:38;;;;;;;10.15;8.02;;;;;;;24.00;34.13;100234.44;5018996;28;21051;-58
2021/12/09 04:14:04;;;;;;;11.38;8.93;;;;;;;24.00;34.24;100226.41;5017408;28;20119;-59
2021/12/09 04:16:30;;;;;;;11.55;9.82;;;;;;;24.00;33.87;100237.13;5001013;28;20092;-58
2021/12/09 04:18:56;;;;;;;11.32;8.82;;;;;;;24.20;34.33;100276.16;4993326;28;20096;-56
2021/12/09 04:21:22;;;;;;;14.38;8.93;;;;;;;24.21;34.05;100272.53;5014784;28;20045;-56
2021/12/09 04:23:47;;;;;;;12.15;9.63;;;;;;;23.98;33.89;100228.31;5017781;28;20052;-57
2021/12/09 04:26:13;;;;;;;12.35;9.68;;;;;;;24.21;34.06;100273.41;5016815;28;20045;-56
2021/12/09 04:28:39;;;;;;;12.88;9.45;;;;;;;24.22;33.91;100266.22;5013236;28;20049;-58
2021/12/09 04:31:05;;;;;;;13.32;9.68;;;;;;;23.98;34.11;100233.69;5015429;28;20045;-56
2021/12/09 04:33:32;;;;;;;11.40;9.77;;;;;;;23.98;33.85;100234.53;5015220;28;20041;-57
2021/12/09 04:35:58;;;;;;;12.05;9.32;;;;;;;24.17;33.89;100266.47;5017465;28;20067;-57
2021/12/09 04:38:25;;;;;;;11.82;10.15;;;;;;;24.09;34.05;100258.03;5016992;28;20081;-57
2021/12/09 04:40:50;;;;;;;10.50;8.98;;;;;;;24.17;34.19;100266.47;5017664;28;20049;-55
2021/12/09 04:43:16;;;;;;;11.93;9.20;;;;;;;24.17;34.00;100274.53;5014997;28;20041;-57
2021/12/09 04:45:42;;;;;;;13.38;10.70;;;;;;;24.18;33.82;100273.56;5016826;28;20053;-57
2021/12/09 04:48:08;;;;;;;11.75;8.48;;;;;;;24.18;34.12;100280.75;5016026;28;20120;-56
2021/12/09 04:50:37;;;;;;;12.32;8.90;;;;;;;24.12;34.16;100273.09;5015127;28;20064;-56
2021/12/09 04:53:03;;;;;;;13.20;9.82;;;;;;;23.91;34.12;100232.31;5015184;28;20064;-56
2021/12/09 04:55:29;;;;;;;12.35;9.77;;;;;;;24.14;33.74;100280.06;5015710;28;20149;-57
2021/12/09 04:57:54;;;;;;;14.13;10.65;;;;;;;23.88;33.85;100243.19;5015394;28;20053;-56
2021/12/09 05:00:23;;;;;;;15.77;10.48;;;;;;;24.16;34.16;100279.97;5016498;28;20049;-56
2021/12/09 05:05:27;;;;;;;12.07;9.23;;;;;;;24.10;33.82;100262.44;5015887;28;20474;-58
2021/12/09 05:07:52;;;;;;;11.82;10.23;;;;;;;24.12;34.05;100257.00;5016464;28;20053;-58
2021/12/09 05:10:18;;;;;;;13.70;10.07;;;;;;;24.04;33.99;100254.75;5013779;28;20041;-59
2021/12/09 05:12:43;;;;;;;14.18;10.80;;;;;;;24.09;33.97;100273.25;5016664;28;20144;-56
2021/12/09 05:15:10;;;;;;;14.60;10.27;;;;;;;24.06;33.85;100263.56;5017430;28;20034;-56
2021/12/09 05:17:36;;;;;;;13.52;10.38;;;;;;;24.13;33.70;100272.97;5015645;28;20521;-58
2021/12/09 05:20:05;;;;;;;13.40;10.73;;;;;;;23.94;34.04;100235.66;5015680;28;20054;-57
2021/12/09 05:22:31;;;;;;;12.75;9.88;;;;;;;23.95;33.99;100245.44;5016234;28;20087;-59
2021/12/09 05:24:57;;;;;;;15.93;11.32;;;;;;;24.00;34.02;100248.72;5020452;28;20539;-58
2021/12/09 05:27:23;;;;;;;13.13;11.10;;;;;;;24.11;33.96;100274.88;5020465;28;21503;-58
2021/12/09 05:30:03;;;;;;;14.75;11.38;;;;;;;24.12;33.92;100286.50;5021412;28;20041;-58
2021/12/09 05:32:29;;;;;;;13.30;10.05;;;;;;;23.93;33.83;100270.63;5017713;28;20374;-58
2021/12/09 05:34:55;;;;;;;13.90;11.38;;;;;;;24.03;34.00;100287.88;5018210;28;20041;-59
2021/12/09 05:37:24;;;;;;;15.68;10.65;;;;;;;24.04;34.11;100292.28;5019537;28;20064;-58
2021/12/09 05:39:52;;;;;;;15.30;11.00;;;;;;;24.08;34.03;100296.50;5015317;28;20076;-58
2021/12/09 05:42:21;;;;;;;14.98;12.45;;;;;;;24.10;33.55;100307.16;5009340;28;20037;-58
2021/12/09 05:44:47;;;;;;;19.55;12.07;;;;;;;23.83;33.81;100256.84;5019609;28;20504;-58
2021/12/09 05:47:13;;;;;;;12.45;10.43;;;;;;;24.09;34.06;100300.94;5018665;28;20132;-58
2021/12/09 05:49:42;;;;;;;14.32;11.48;;;;;;;24.10;33.83;100305.34;5019175;28;20136;-58
2021/12/09 05:52:08;;;;;;;16.25;12.38;;;;;;;23.86;34.01;100272.78;5017268;28;20557;-59
2021/12/09 05:54:34;;;;;;;17.45;11.98;;;;;;;24.04;33.71;100310.19;5017522;28;20042;-58
2021/12/09 05:57:00;;;;;;;14.63;10.95;;;;;;;24.08;33.64;100320.63;5020897;28;20102;-58
2021/12/09 05:59:27;;;;;;;16.20;12.35;;;;;;;23.87;33.83;100279.84;5016515;28;20064;-58
2021/12/09 06:01:53;;;;;;;14.55;11.32;;;;;;;23.85;33.64;100291.63;5020393;28;20117;-58
2021/12/09 06:04:19;;;;;;;14.55;10.90;;;;;;;23.87;33.76;100308.47;5004167;28;20080;-57
2021/12/09 06:06:45;;;;;;;17.20;11.75;;;;;;;24.04;33.85;100340.53;4994830;28;20049;-57
2021/12/09 06:09:11;;;;;;;15.43;11.63;;;;;;;23.88;33.47;100311.06;5016584;28;20033;-58
2021/12/09 06:11:39;;;;;;;14.38;10.52;;;;;;;24.08;33.49;100351.94;5017085;28;20160;-59
2021/12/09 06:14:06;;;;;;;16.50;12.63;;;;;;;24.05;33.73;100338.72;5018860;28;20049;-58
2021/12/09 06:16:32;;;;;;;23.52;13.73;;;;;;;24.09;33.42;100348.31;5018203;28;20140;-58
2021/12/09 06:18:58;;;;;;;17.08;12.65;;;;;;;24.08;33.91;100343.91;5018346;28;20053;-58
2021/12/09 06:21:27;;;;;;;18.08;11.38;;;;;;;24.04;33.65;100348.56;5019277;28;20072;-58
2021/12/09 06:23:57;;;;;;;17.80;14.20;;;;;;;24.05;33.64;100350.31;5018654;28;20036;-59
2021/12/09 06:26:23;;;;;;;17.20;13.07;;;;;;;23.99;33.69;100338.09;5018328;28;20042;-58
2021/12/09 06:28:49;;;;;;;15.45;11.32;;;;;;;24.04;33.73;100343.22;5019419;28;20060;-58
2021/12/09 06:31:14;;;;;;;19.55;14.00;;;;;;;23.98;33.31;100335.53;5019339;28;20041;-58
2021/12/09 06:33:40;;;;;;;14.80;11.30;;;;;;;23.93;33.47;100329.56;5018170;28;20891;-58
2021/12/09 06:36:06;;;;;;;20.73;13.30;;;;;;;24.02;33.68;100347.78;5018955;28;20038;-56
